createdAt,value
2018-08-03T00:02:39.472Z,30.93
2018-08-03T00:05:08.443Z,27.87
2018-08-03T00:07:37.297Z,28.90
2018-08-03T00:10:07.401Z,23.47
2018-08-03T01:02:47.725Z,27.37
2018-08-03T01:05:16.590Z,21.53
2018-08-03T01:07:44.999Z,23.83
2018-08-03T02:02:44.181Z,26.10
2018-08-03T02:05:13.016Z,22.80
2018-08-03T02:07:42.032Z,23.13
2018-08-03T02:10:10.510Z,19.97
2018-08-03T03:02:37.859Z,21.40
2018-08-03T03:05:13.697Z,23.27
2018-08-03T03:07:42.690Z,19.97
2018-08-03T03:10:12.479Z,21.30
2018-08-03T04:02:39.287Z,15.57
2018-08-03T04:05:13.466Z,14.83
2018-08-03T04:07:42.810Z,17.17
2018-08-03T05:02:40.442Z,14.97
2018-08-03T05:05:09.730Z,17.23
2018-08-03T05:07:39.224Z,14.33
2018-08-03T06:02:51.930Z,26.90
2018-08-03T06:05:20.779Z,27.73
2018-08-03T06:07:49.642Z,40.00
2018-08-03T06:10:18.981Z,38.67
2018-08-03T07:02:47.055Z,21.23
2018-08-03T07:05:15.946Z,20.63
2018-08-03T07:07:44.800Z,23.70
2018-08-03T07:10:13.663Z,19.62
2018-08-03T08:02:41.809Z,22.63
2018-08-03T08:05:10.699Z,21.77
2018-08-03T08:07:39.587Z,17.60
2018-08-03T08:10:08.953Z,14.65
2018-08-03T09:02:57.881Z,14.83
2018-08-03T09:05:26.771Z,9.60
2018-08-03T09:07:55.676Z,11.33
2018-08-03T09:10:24.544Z,10.83
2018-08-03T10:02:43.715Z,12.73
2018-08-03T10:05:12.866Z,10.70
2018-08-03T10:07:41.746Z,10.93
2018-08-03T11:02:37.258Z,12.37
2018-08-03T11:05:06.369Z,12.27
2018-08-03T11:07:35.275Z,11.87
2018-08-03T11:10:04.167Z,11.37
2018-08-03T12:02:39.903Z,11.40
2018-08-03T12:05:08.800Z,12.07
2018-08-03T12:07:37.683Z,12.67
2018-08-03T12:10:06.879Z,11.07
2018-08-03T13:02:39.417Z,7.50
2018-08-03T13:05:08.328Z,7.47
2018-08-03T13:07:37.354Z,8.83
2018-08-03T13:10:06.532Z,7.65
2018-08-03T14:03:03.865Z,6.60
2018-08-03T14:05:33.297Z,6.87
2018-08-03T14:08:02.135Z,6.60
2018-08-03T14:10:30.986Z,6.43
2018-08-03T15:02:41.305Z,9.60
2018-08-03T15:05:10.147Z,9.70
2018-08-03T15:07:39.047Z,10.20
2018-08-03T16:02:37.092Z,8.97
2018-08-03T16:05:06.703Z,8.37
2018-08-03T16:07:36.179Z,8.43
2018-08-03T16:10:05.872Z,8.83
2018-08-03T17:02:45.463Z,9.77
2018-08-03T17:05:14.314Z,9.67
2018-08-03T17:07:43.293Z,10.83
2018-08-03T18:02:37.537Z,15.73
2018-08-03T18:05:06.648Z,12.43
2018-08-03T18:07:35.513Z,13.93
2018-08-03T18:10:11.704Z,12.03
2018-08-03T19:02:37.722Z,9.77
2018-08-03T19:05:07.410Z,7.33
2018-08-03T19:07:36.338Z,7.07
2018-08-03T19:10:05.298Z,9.17
2018-08-03T20:02:42.912Z,16.13
2018-08-03T20:05:11.893Z,14.13
2018-08-03T20:07:40.732Z,13.73
2018-08-03T21:02:39.338Z,16.97
2018-08-03T21:05:08.248Z,14.03
2018-08-03T21:07:37.224Z,15.57
2018-08-03T21:10:06.326Z,14.83
2018-08-03T23:02:37.558Z,23.97
2018-08-03T23:05:06.457Z,21.07
2018-08-03T23:07:35.307Z,22.63
2018-08-03T23:10:04.382Z,19.23
